Time;durP1;ratioP1;P1;durP2;ratioP2;P2;SDS_P1;SDS_P2;PMS_P1;PMS_P2;Temp;Humidity;BMP_temperature;BMP_pressure;BME280_temperature;BME280_humidity;BME280_pressure;Samples;Min_cycle;Max_cycle;Signal;HPM_P1;HPM_P2
2023/07/08 00:00:37;;;;;;;;;;;18.90;96.40;;;;;;5043590;28;19952;-85
2023/07/08 00:03:04;;;;;;;;;;;18.90;96.70;;;;;;5044935;28;20231;-86
2023/07/08 00:05:33;;;;;;;;;;;18.80;97.00;;;;;;5046629;28;19921;-85
2023/07/08 00:07:59;;;;;;;;;;;18.80;97.30;;;;;;5046451;28;19921;-86
2023/07/08 00:10:27;;;;;;;;;;;18.80;97.50;;;;;;5047301;28;19947;-84
2023/07/08 00:12:55;;;;;;;;;;;18.80;97.70;;;;;;5046837;28;19936;-86
2023/07/08 00:15:23;;;;;;;;;;;18.80;97.80;;;;;;5046285;28;19967;-85
2023/07/08 00:17:49;;;;;;;;;;;18.70;98.10;;;;;;5046236;28;19980;-86
2023/07/08 00:20:18;;;;;;;;;;;18.60;98.40;;;;;;5046358;28;19929;-85
2023/07/08 00:22:49;;;;;;;;;;;18.60;98.70;;;;;;5045809;28;19943;-86
2023/07/08 00:25:16;;;;;;;;;;;18.40;99.10;;;;;;5046075;28;19925;-85
2023/07/08 00:27:43;;;;;;;;;;;18.40;99.60;;;;;;5045910;28;19964;-86
2023/07/08 00:30:17;;;;;;;;;;;18.30;99.90;;;;;;5046049;28;19921;-85
2023/07/08 00:32:43;;;;;;;;;;;18.30;99.90;;;;;;5046166;28;19928;-86
2023/07/08 00:35:10;;;;;;;;;;;18.30;99.90;;;;;;5045805;28;19957;-86
2023/07/08 00:37:39;;;;;;;;;;;18.20;99.90;;;;;;5047543;28;19920;-85
2023/07/08 00:40:14;;;;;;;;;;;18.10;99.90;;;;;;5049560;28;20304;-86
2023/07/08 00:42:41;;;;;;;;;;;18.10;99.90;;;;;;5049580;28;19984;-84
2023/07/08 00:45:16;;;;;;;;;;;18.10;99.90;;;;;;5049278;28;19956;-86
2023/07/08 00:47:43;;;;;;;;;;;18.10;99.90;;;;;;5048706;28;19921;-85
2023/07/08 00:50:11;;;;;;;;;;;18.00;99.90;;;;;;5049487;28;19928;-86
2023/07/08 00:52:37;;;;;;;;;;;18.00;99.90;;;;;;5028734;28;19921;-85
2023/07/08 00:55:06;;;;;;;;;;;18.00;99.90;;;;;;5028137;28;19988;-85
2023/07/08 00:57:39;;;;;;;;;;;17.80;99.90;;;;;;5042854;28;19921;-86
2023/07/08 01:00:08;;;;;;;;;;;17.80;99.90;;;;;;5055671;28;19935;-83
2023/07/08 01:02:41;;;;;;;;;;;17.70;99.90;;;;;;5055023;28;19921;-85
2023/07/08 01:05:10;;;;;;;;;;;17.70;99.90;;;;;;5049842;28;19929;-85
2023/07/08 01:07:39;;;;;;;;;;;17.70;99.90;;;;;;5049890;28;19980;-86
2023/07/08 01:10:12;;;;;;;;;;;17.70;99.90;;;;;;5051196;28;19927;-85
2023/07/08 01:12:42;;;;;;;;;;;17.60;99.90;;;;;;5050506;28;19921;-83
2023/07/08 01:15:09;;;;;;;;;;;17.50;99.90;;;;;;5050018;28;19981;-85
2023/07/08 01:17:39;;;;;;;;;;;17.50;99.90;;;;;;5050189;28;19952;-85
2023/07/08 01:20:06;;;;;;;;;;;17.50;99.90;;;;;;5049701;28;19921;-85
2023/07/08 01:22:35;;;;;;;;;;;17.40;99.90;;;;;;5049665;28;19925;-86
2023/07/08 01:25:03;;;;;;;;;;;17.40;99.90;;;;;;5049324;28;19988;-85
2023/07/08 01:27:31;;;;;;;;;;;17.30;99.90;;;;;;5049319;28;19921;-85
2023/07/08 01:29:58;;;;;;;;;;;17.30;99.90;;;;;;5049097;28;19943;-85
2023/07/08 01:32:25;;;;;;;;;;;17.20;99.90;;;;;;5049480;28;19921;-86
2023/07/08 01:35:00;;;;;;;;;;;17.10;99.90;;;;;;5048520;28;19921;-85
2023/07/08 01:37:32;;;;;;;;;;;17.10;99.90;;;;;;5048043;28;19921;-85
2023/07/08 01:40:14;;;;;;;;;;;17.10;99.90;;;;;;5048327;28;19927;-85
2023/07/08 01:42:40;;;;;;;;;;;17.00;99.90;;;;;;5049260;28;20149;-85
2023/07/08 01:45:10;;;;;;;;;;;17.00;99.90;;;;;;5048286;28;19959;-85
2023/07/08 01:47:37;;;;;;;;;;;17.00;99.90;;;;;;5047113;28;19929;-85
2023/07/08 01:50:04;;;;;;;;;;;17.00;99.90;;;;;;5047995;28;19952;-85
2023/07/08 01:52:31;;;;;;;;;;;16.90;99.90;;;;;;5047952;28;19941;-86
2023/07/08 01:54:57;;;;;;;;;;;16.90;99.90;;;;;;5047489;28;20178;-85
2023/07/08 01:57:25;;;;;;;;;;;16.90;99.90;;;;;;5048045;28;19988;-87
2023/07/08 01:59:52;;;;;;;;;;;16.90;99.90;;;;;;5047690;28;20235;-85
2023/07/08 02:02:18;;;;;;;;;;;16.90;99.90;;;;;;5047046;28;19983;-87
2023/07/08 02:04:45;;;;;;;;;;;16.80;99.90;;;;;;5046986;28;19951;-86
2023/07/08 02:07:12;;;;;;;;;;;16.80;99.90;;;;;;5047370;28;19984;-85
2023/07/08 02:09:38;;;;;;;;;;;16.70;99.90;;;;;;5046877;28;20160;-86
2023/07/08 02:12:05;;;;;;;;;;;16.60;99.90;;;;;;5046982;28;19921;-86
2023/07/08 02:14:33;;;;;;;;;;;16.60;99.90;;;;;;5046874;28;19921;-86
2023/07/08 02:17:00;;;;;;;;;;;16.50;99.90;;;;;;5046453;28;20238;-85
2023/07/08 02:19:27;;;;;;;;;;;16.40;99.90;;;;;;5046632;28;20171;-85
2023/07/08 02:21:54;;;;;;;;;;;16.40;99.90;;;;;;5046518;28;19963;-85
2023/07/08 02:24:23;;;;;;;;;;;16.30;99.90;;;;;;5046256;28;19921;-86
2023/07/08 02:26:50;;;;;;;;;;;16.30;99.90;;;;;;5046607;28;19956;-86
2023/07/08 02:29:17;;;;;;;;;;;16.20;99.90;;;;;;5046075;28;19928;-86
2023/07/08 02:31:45;;;;;;;;;;;16.20;99.90;;;;;;5046350;28;19989;-86
2023/07/08 02:34:11;;;;;;;;;;;16.20;99.90;;;;;;5045974;28;19950;-86
2023/07/08 02:36:39;;;;;;;;;;;16.20;99.90;;;;;;5049449;28;19937;-84
2023/07/08 02:39:06;;;;;;;;;;;16.10;99.90;;;;;;5046409;28;19957;-84
2023/07/08 02:41:33;;;;;;;;;;;16.10;99.90;;;;;;5046204;28;19921;-85
2023/07/08 02:44:00;;;;;;;;;;;16.00;99.90;;;;;;5045697;28;19945;-84
2023/07/08 02:46:26;;;;;;;;;;;16.00;99.90;;;;;;5064738;22;19971;-70
2023/07/08 02:48:54;;;;;;;;;;;16.00;99.90;;;;;;5064674;28;19944;-70
2023/07/08 02:51:21;;;;;;;;;;;16.00;99.90;;;;;;5065055;28;19921;-70
2023/07/08 02:53:49;;;;;;;;;;;15.90;99.90;;;;;;5064475;28;19975;-70
2023/07/08 02:56:16;;;;;;;;;;;15.90;99.90;;;;;;5064871;28;19928;-70
2023/07/08 02:58:42;;;;;;;;;;;15.90;99.90;;;;;;5064270;28;20238;-70
2023/07/08 03:01:09;;;;;;;;;;;15.80;99.90;;;;;;5064270;28;19928;-70
2023/07/08 03:03:36;;;;;;;;;;;15.70;99.90;;;;;;5064510;28;19987;-70
2023/07/08 03:06:05;;;;;;;;;;;15.70;99.90;;;;;;5064464;28;20255;-70
2023/07/08 03:08:32;;;;;;;;;;;15.60;99.90;;;;;;5064825;28;19921;-70
2023/07/08 03:11:00;;;;;;;;;;;15.60;99.90;;;;;;5064830;28;20089;-70
2023/07/08 03:13:27;;;;;;;;;;;15.60;99.90;;;;;;5064445;28;20107;-70
2023/07/08 03:15:54;;;;;;;;;;;15.50;99.90;;;;;;5064094;28;20238;-70
2023/07/08 03:18:23;;;;;;;;;;;15.50;99.90;;;;;;5064629;28;19927;-70
2023/07/08 03:20:50;;;;;;;;;;;15.40;99.90;;;;;;5064550;28;20154;-70
2023/07/08 03:23:18;;;;;;;;;;;15.40;99.90;;;;;;5063918;28;19991;-70
2023/07/08 03:25:44;;;;;;;;;;;15.40;99.90;;;;;;5064368;28;19921;-70
2023/07/08 03:28:14;;;;;;;;;;;15.40;99.90;;;;;;5064022;28;20093;-70
2023/07/08 03:30:41;;;;;;;;;;;15.40;99.90;;;;;;5063814;28;19920;-70
2023/07/08 03:33:08;;;;;;;;;;;15.30;99.90;;;;;;5063927;28;19921;-71
2023/07/08 03:35:35;;;;;;;;;;;15.30;99.90;;;;;;5063896;28;19943;-70
2023/07/08 03:38:02;;;;;;;;;;;15.30;99.90;;;;;;5063390;28;19959;-70
2023/07/08 03:40:30;;;;;;;;;;;15.30;99.90;;;;;;5064323;28;19921;-70
2023/07/08 03:42:56;;;;;;;;;;;15.20;99.90;;;;;;5064157;28;19921;-70
2023/07/08 03:45:23;;;;;;;;;;;15.20;99.90;;;;;;5063652;28;19948;-71
2023/07/08 03:47:50;;;;;;;;;;;15.20;99.90;;;;;;5079453;28;19920;-70
2023/07/08 03:50:19;;;;;;;;;;;15.10;99.90;;;;;;5084079;28;19948;-69
2023/07/08 03:52:45;;;;;;;;;;;15.10;99.90;;;;;;5084015;28;19920;-69
2023/07/08 03:55:12;;;;;;;;;;;15.10;99.90;;;;;;5083753;28;19921;-70
2023/07/08 03:57:40;;;;;;;;;;;15.10;99.90;;;;;;5083973;28;19995;-70
2023/07/08 04:00:09;;;;;;;;;;;15.00;99.90;;;;;;5084093;28;19943;-70
2023/07/08 04:02:35;;;;;;;;;;;15.10;99.90;;;;;;5083616;28;19991;-70
2023/07/08 04:05:02;;;;;;;;;;;15.10;99.90;;;;;;5083385;28;19952;-70
2023/07/08 04:07:29;;;;;;;;;;;15.10;99.90;;;;;;5083889;28;19984;-71
2023/07/08 04:09:55;;;;;;;;;;;15.10;99.90;;;;;;5083815;28;19983;-70
2023/07/08 04:12:22;;;;;;;;;;;15.10;99.90;;;;;;5083051;28;19975;-70
2023/07/08 04:14:50;;;;;;;;;;;15.10;99.90;;;;;;5083161;28;19926;-69
2023/07/08 04:17:19;;;;;;;;;;;15.10;99.90;;;;;;5083716;28;19927;-69
2023/07/08 04:19:45;;;;;;;;;;;15.10;99.90;;;;;;5080882;28;19920;-69
2023/07/08 04:22:12;;;;;;;;;;;15.10;99.90;;;;;;5083440;28;19952;-70
2023/07/08 04:24:39;;;;;;;;;;;15.10;99.90;;;;;;5082562;28;19984;-71
2023/07/08 04:27:05;;;;;;;;;;;15.10;99.90;;;;;;5083747;28;20060;-70
2023/07/08 04:29:32;;;;;;;;;;;15.10;99.90;;;;;;5082401;28;20279;-70
2023/07/08 04:32:00;;;;;;;;;;;15.00;99.90;;;;;;5083702;28;19979;-68
2023/07/08 04:34:28;;;;;;;;;;;15.10;99.90;;;;;;5083113;28;19991;-67
2023/07/08 04:36:55;;;;;;;;;;;15.10;99.90;;;;;;5082894;28;19970;-68
2023/07/08 04:39:24;;;;;;;;;;;15.10;99.90;;;;;;5082967;28;19927;-67
2023/07/08 04:41:51;;;;;;;;;;;15.20;99.90;;;;;;5082874;28;20267;-68
2023/07/08 04:44:18;;;;;;;;;;;15.20;99.90;;;;;;5082810;28;19921;-68
2023/07/08 04:46:46;;;;;;;;;;;15.30;99.90;;;;;;5082944;28;19979;-68
2023/07/08 04:49:14;;;;;;;;;;;15.30;99.90;;;;;;5082943;28;20227;-68
2023/07/08 04:51:57;;;;;;;;;;;15.40;99.90;;;;;;5082915;28;19920;-67
2023/07/08 04:54:23;;;;;;;;;;;15.50;99.90;;;;;;5082606;28;19992;-67
2023/07/08 04:56:50;;;;;;;;;;;15.50;99.90;;;;;;5082948;28;20266;-68
2023/07/08 04:59:18;;;;;;;;;;;15.60;99.90;;;;;;5083046;28;20115;-67
2023/07/08 05:02:00;;;;;;;;;;;15.70;99.90;;;;;;5083295;28;20283;-68
2023/07/08 05:04:28;;;;;;;;;;;15.70;99.90;;;;;;5082426;28;19920;-68
2023/07/08 05:06:54;;;;;;;;;;;15.80;99.90;;;;;;5082951;28;19921;-68
2023/07/08 05:09:27;;;;;;;;;;;15.80;99.90;;;;;;5082010;28;19987;-68
2023/07/08 05:11:54;;;;;;;;;;;15.90;99.90;;;;;;5083076;28;19920;-68
2023/07/08 05:14:20;;;;;;;;;;;16.00;99.90;;;;;;5082730;28;19987;-69
2023/07/08 05:16:47;;;;;;;;;;;16.10;99.90;;;;;;5083013;28;19959;-68
2023/07/08 05:19:14;;;;;;;;;;;16.20;99.90;;;;;;5082814;28;19921;-67
2023/07/08 05:21:45;;;;;;;;;;;16.40;99.90;;;;;;5082667;28;19927;-70
2023/07/08 05:24:11;;;;;;;;;;;16.50;99.90;;;;;;5086474;28;19921;-71
2023/07/08 05:26:38;;;;;;;;;;;16.60;99.90;;;;;;5086390;28;19987;-71
2023/07/08 05:29:05;;;;;;;;;;;16.70;99.90;;;;;;5086429;28;20200;-70
2023/07/08 05:31:31;;;;;;;;;;;16.90;99.90;;;;;;5086187;28;19924;-70
2023/07/08 05:33:58;;;;;;;;;;;17.00;99.90;;;;;;5066112;28;19944;-70
2023/07/08 05:36:24;;;;;;;;;;;17.10;99.90;;;;;;5066253;28;19927;-71
2023/07/08 05:38:52;;;;;;;;;;;17.30;99.90;;;;;;5066308;28;19987;-71
2023/07/08 05:41:19;;;;;;;;;;;17.40;99.90;;;;;;5065948;28;20392;-70
2023/07/08 05:43:46;;;;;;;;;;;17.50;99.90;;;;;;5065818;28;19928;-70
2023/07/08 05:46:12;;;;;;;;;;;17.60;99.90;;;;;;5067229;28;20000;-71
2023/07/08 05:48:39;;;;;;;;;;;17.70;99.90;;;;;;5086173;28;20168;-71
2023/07/08 05:51:05;;;;;;;;;;;17.80;99.90;;;;;;5086035;28;20230;-72
2023/07/08 05:53:32;;;;;;;;;;;17.90;99.90;;;;;;5085644;28;19921;-71
2023/07/08 05:56:00;;;;;;;;;;;18.10;99.90;;;;;;5086045;28;19959;-70
2023/07/08 05:58:27;;;;;;;;;;;18.20;99.90;;;;;;5085902;28;19920;-71
2023/07/08 06:00:56;;;;;;;;;;;18.40;99.90;;;;;;5086052;28;20195;-71
2023/07/08 06:03:22;;;;;;;;;;;18.50;99.90;;;;;;5085226;28;19921;-69
2023/07/08 06:05:50;;;;;;;;;;;18.60;99.90;;;;;;5084498;28;20204;-71
2023/07/08 06:08:16;;;;;;;;;;;18.80;99.90;;;;;;5067020;28;19921;-70
2023/07/08 06:10:43;;;;;;;;;;;19.00;99.90;;;;;;5065582;28;19992;-70
2023/07/08 06:13:12;;;;;;;;;;;19.20;99.90;;;;;;5064840;28;20270;-72
2023/07/08 06:15:39;;;;;;;;;;;19.40;99.90;;;;;;5083893;28;19921;-71
2023/07/08 06:18:05;;;;;;;;;;;19.50;99.90;;;;;;5085523;28;19920;-70
2023/07/08 06:20:32;;;;;;;;;;;19.70;99.90;;;;;;5084136;28;19992;-71
2023/07/08 06:22:59;;;;;;;;;;;19.80;99.90;;;;;;5085239;28;19920;-70
2023/07/08 06:25:25;;;;;;;;;;;19.90;99.90;;;;;;5085404;28;19958;-70
2023/07/08 06:27:52;;;;;;;;;;;20.10;99.90;;;;;;5085189;28;20287;-69
2023/07/08 06:30:20;;;;;;;;;;;20.20;99.90;;;;;;5085055;28;19987;-68
2023/07/08 06:32:47;;;;;;;;;;;20.30;99.90;;;;;;5085187;28;19995;-70
2023/07/08 06:35:14;;;;;;;;;;;20.40;99.90;;;;;;5084295;28;19955;-71
2023/07/08 06:37:40;;;;;;;;;;;20.60;99.90;;;;;;5084947;28;19927;-71
2023/07/08 06:40:08;;;;;;;;;;;20.60;99.90;;;;;;5085226;28;19952;-70
2023/07/08 06:42:35;;;;;;;;;;;20.70;99.90;;;;;;5084937;28;20182;-71
2023/07/08 06:45:03;;;;;;;;;;;20.70;99.90;;;;;;5084618;28;19960;-70
2023/07/08 06:47:31;;;;;;;;;;;20.80;99.90;;;;;;5084825;28;19924;-71
2023/07/08 06:49:57;;;;;;;;;;;20.90;99.90;;;;;;5084857;28;19927;-71
2023/07/08 06:52:24;;;;;;;;;;;21.10;99.90;;;;;;5085045;28;19954;-71
2023/07/08 06:54:50;;;;;;;;;;;21.10;99.90;;;;;;5084553;28;19921;-70
2023/07/08 06:57:17;;;;;;;;;;;21.30;99.90;;;;;;5084532;28;19959;-68
2023/07/08 06:59:44;;;;;;;;;;;21.40;99.90;;;;;;5084561;28;19921;-67
2023/07/08 07:02:10;;;;;;;;;;;21.50;99.90;;;;;;5084622;28;19952;-69
2023/07/08 07:04:38;;;;;;;;;;;21.60;99.90;;;;;;5084161;28;20178;-68
2023/07/08 07:07:05;;;;;;;;;;;21.70;99.90;;;;;;5084540;28;19920;-68
2023/07/08 07:09:32;;;;;;;;;;;21.80;99.90;;;;;;5080023;28;19939;-67
2023/07/08 07:11:58;;;;;;;;;;;22.00;99.90;;;;;;5083304;28;20276;-68
2023/07/08 07:14:25;;;;;;;;;;;22.00;99.90;;;;;;5083127;28;19928;-68
2023/07/08 07:16:51;;;;;;;;;;;22.10;99.90;;;;;;5083992;28;19988;-68
2023/07/08 07:19:18;;;;;;;;;;;22.30;99.90;;;;;;5068861;28;19988;-69
2023/07/08 07:21:46;;;;;;;;;;;22.30;99.90;;;;;;5064022;28;20168;-68
2023/07/08 07:24:13;;;;;;;;;;;22.40;99.90;;;;;;5063508;28;19992;-69
2023/07/08 07:26:39;;;;;;;;;;;22.40;99.90;;;;;;5068475;28;19991;-68
2023/07/08 07:29:06;;;;;;;;;;;22.50;99.90;;;;;;5063966;28;19983;-68
2023/07/08 07:31:33;;;;;;;;;;;22.50;99.90;;;;;;5063897;28;19996;-68
2023/07/08 07:34:00;;;;;;;;;;;22.60;99.90;;;;;;5063281;28;19958;-68
2023/07/08 07:36:26;;;;;;;;;;;22.70;99.90;;;;;;5087024;28;19985;-66
2023/07/08 07:38:54;;;;;;;;;;;22.90;99.90;;;;;;5103883;28;19927;-66
2023/07/08 07:41:21;;;;;;;;;;;23.00;99.90;;;;;;5103500;28;19986;-65
2023/07/08 07:43:48;;;;;;;;;;;23.20;99.90;;;;;;5097015;28;19921;-66
2023/07/08 07:46:14;;;;;;;;;;;23.20;99.90;;;;;;5083196;28;19927;-66
2023/07/08 07:48:42;;;;;;;;;;;23.30;99.90;;;;;;5083631;28;19952;-67
2023/07/08 07:51:10;;;;;;;;;;;23.40;99.90;;;;;;5083654;28;19929;-67
2023/07/08 07:53:37;;;;;;;;;;;23.40;99.90;;;;;;5083347;28;19921;-68
2023/07/08 07:56:05;;;;;;;;;;;23.60;99.90;;;;;;5068987;28;19921;-67
2023/07/08 07:58:33;;;;;;;;;;;23.70;99.90;;;;;;5063495;28;19960;-67
2023/07/08 08:00:59;;;;;;;;;;;23.80;99.90;;;;;;5068380;28;19927;-68
2023/07/08 08:03:26;;;;;;;;;;;24.00;99.90;;;;;;5082563;28;19920;-68
2023/07/08 08:05:53;;;;;;;;;;;24.00;99.90;;;;;;5083109;28;19920;-68
2023/07/08 08:08:20;;;;;;;;;;;24.10;99.90;;;;;;5066394;28;19993;-68
2023/07/08 08:10:47;;;;;;;;;;;24.20;99.90;;;;;;5078371;28;19978;-68
2023/07/08 08:13:15;;;;;;;;;;;24.30;99.90;;;;;;5079113;28;19988;-68
2023/07/08 08:15:43;;;;;;;;;;;24.30;99.90;;;;;;5082158;28;19987;-68
2023/07/08 08:18:10;;;;;;;;;;;24.40;99.90;;;;;;5081538;28;19960;-68
2023/07/08 08:20:36;;;;;;;;;;;24.50;99.90;;;;;;5082812;28;20201;-68
2023/07/08 08:23:03;;;;;;;;;;;24.60;99.90;;;;;;5082513;28;19927;-67
2023/07/08 08:25:30;;;;;;;;;;;24.70;99.90;;;;;;5082702;28;19951;-67
2023/07/08 08:27:56;;;;;;;;;;;24.80;99.90;;;;;;5070072;28;20196;-68
2023/07/08 08:30:24;;;;;;;;;;;24.90;99.90;;;;;;5081885;28;20232;-66
2023/07/08 08:32:51;;;;;;;;;;;25.10;99.90;;;;;;5082648;28;19934;-67
2023/07/08 08:35:18;;;;;;;;;;;25.10;99.90;;;;;;5081684;28;19959;-66
2023/07/08 08:37:44;;;;;;;;;;;25.30;99.90;;;;;;5082709;28;19952;-66
2023/07/08 08:40:13;;;;;;;;;;;25.50;99.90;;;;;;5076317;28;19956;-66
2023/07/08 08:42:43;;;;;;;;;;;25.60;99.90;;;;;;5063078;28;19927;-66
2023/07/08 08:45:12;;;;;;;;;;;25.70;99.90;;;;;;5061893;28;19979;-66
2023/07/08 08:47:42;;;;;;;;;;;25.70;99.90;;;;;;5079035;28;20105;-65
2023/07/08 08:50:20;;;;;;;;;;;25.70;99.90;;;;;;5081646;28;20216;-66
2023/07/08 08:52:46;;;;;;;;;;;25.70;99.90;;;;;;5080266;28;19987;-65
2023/07/08 08:55:13;;;;;;;;;;;25.80;99.90;;;;;;5081383;28;19943;-65
2023/07/08 08:57:44;;;;;;;;;;;25.90;99.90;;;;;;5084258;28;19927;-65
2023/07/08 09:00:12;;;;;;;;;;;26.00;99.90;;;;;;5086272;28;20107;-65
2023/07/08 09:02:42;;;;;;;;;;;26.00;99.90;;;;;;5083924;28;19984;-66
2023/07/08 09:05:10;;;;;;;;;;;26.00;99.90;;;;;;5084604;28;19920;-65
2023/07/08 09:07:42;;;;;;;;;;;26.10;99.90;;;;;;5086203;28;19959;-65
2023/07/08 09:10:11;;;;;;;;;;;26.10;99.90;;;;;;5084368;28;20051;-65
2023/07/08 09:12:46;;;;;;;;;;;26.20;99.90;;;;;;5086079;28;19920;-66
2023/07/08 09:15:14;;;;;;;;;;;26.30;99.90;;;;;;5083952;28;19935;-66
2023/07/08 09:17:44;;;;;;;;;;;26.40;99.90;;;;;;5086277;28;19921;-66
2023/07/08 09:20:17;;;;;;;;;;;26.50;99.90;;;;;;5085971;28;19924;-66
2023/07/08 09:22:50;;;;;;;;;;;26.60;99.90;;;;;;5077286;28;20220;-66
2023/07/08 09:25:23;;;;;;;;;;;26.70;98.20;;;;;;5080490;28;19924;-67
2023/07/08 09:27:50;;;;;;;;;;;26.80;97.90;;;;;;5065912;28;19966;-66
2023/07/08 09:30:20;;;;;;;;;;;26.90;97.10;;;;;;5086126;28;20158;-66
2023/07/08 09:32:48;;;;;;;;;;;26.90;96.10;;;;;;5084943;28;19978;-66
2023/07/08 09:35:18;;;;;;;;;;;26.90;96.30;;;;;;5082633;28;20112;-66
2023/07/08 09:37:46;;;;;;;;;;;27.00;96.60;;;;;;5085545;28;19928;-66
2023/07/08 09:40:16;;;;;;;;;;;27.10;96.80;;;;;;5083450;28;20107;-67
2023/07/08 09:42:43;;;;;;;;;;;27.30;95.50;;;;;;5085199;28;20168;-65
2023/07/08 09:45:12;;;;;;;;;;;27.40;94.10;;;;;;5084653;28;19924;-65
2023/07/08 09:47:40;;;;;;;;;;;27.40;93.60;;;;;;5084558;28;19984;-67
2023/07/08 09:50:17;;;;;;;;;;;27.50;94.00;;;;;;5085753;28;19947;-66
2023/07/08 09:52:44;;;;;;;;;;;27.60;95.00;;;;;;5084392;28;19929;-66
2023/07/08 09:55:12;;;;;;;;;;;27.70;94.50;;;;;;5084919;28;20166;-66
2023/07/08 09:57:38;;;;;;;;;;;27.90;93.00;;;;;;5083645;28;19926;-65
2023/07/08 10:00:08;;;;;;;;;;;27.90;92.20;;;;;;5083211;28;19920;-66
2023/07/08 10:02:39;;;;;;;;;;;27.90;91.20;;;;;;5085281;28;20070;-67
2023/07/08 10:05:14;;;;;;;;;;;28.00;89.40;;;;;;5084829;28;19920;-66
2023/07/08 10:10:28;;;;;;;;;;;28.20;91.50;;;;;;5080953;28;20115;-66
2023/07/08 10:12:57;;;;;;;;;;;28.40;90.80;;;;;;5085212;28;19963;-66
2023/07/08 10:15:28;;;;;;;;;;;28.60;90.20;;;;;;5084625;28;19991;-66
2023/07/08 10:18:28;;;;;;;;;;;28.70;87.40;;;;;;5085226;28;19936;-66
2023/07/08 10:20:58;;;;;;;;;;;28.80;86.30;;;;;;5066142;28;19921;-66
2023/07/08 10:23:33;;;;;;;;;;;28.80;87.40;;;;;;5064448;28;19948;-67
2023/07/08 10:29:14;;;;;;;;;;;29.10;87.40;;;;;;5053252;28;20171;-66
2023/07/08 10:31:42;;;;;;;;;;;29.20;86.20;;;;;;5082388;28;19951;-66
2023/07/08 10:34:18;;;;;;;;;;;29.30;85.10;;;;;;5079318;28;19983;-66
2023/07/08 10:36:49;;;;;;;;;;;29.30;84.70;;;;;;5083618;28;20258;-68
2023/07/08 10:39:29;;;;;;;;;;;29.30;85.50;;;;;;5082241;28;20175;-66
2023/07/08 10:42:02;;;;;;;;;;;29.40;85.20;;;;;;5077587;28;19960;-67
2023/07/08 10:44:32;;;;;;;;;;;29.40;82.80;;;;;;5061525;28;19921;-66
2023/07/08 10:47:06;;;;;;;;;;;29.50;83.50;;;;;;5078906;28;19956;-66
2023/07/08 10:49:39;;;;;;;;;;;29.50;83.40;;;;;;5084574;28;19920;-66
2023/07/08 10:52:13;;;;;;;;;;;29.70;85.10;;;;;;5084533;28;19927;-67
2023/07/08 10:54:49;;;;;;;;;;;29.80;84.90;;;;;;5084229;28;19920;-67
2023/07/08 10:57:22;;;;;;;;;;;29.80;83.30;;;;;;5084329;28;19921;-66
2023/07/08 10:59:57;;;;;;;;;;;29.80;88.20;;;;;;5084654;28;19987;-66
2023/07/08 11:02:30;;;;;;;;;;;29.80;88.30;;;;;;5087918;28;20233;-66
2023/07/08 11:05:03;;;;;;;;;;;29.60;90.50;;;;;;5083769;28;20005;-66
2023/07/08 11:07:34;;;;;;;;;;;29.50;88.90;;;;;;5088628;28;19924;-66
2023/07/08 11:10:06;;;;;;;;;;;29.40;90.30;;;;;;5104674;28;19932;-67
2023/07/08 11:12:34;;;;;;;;;;;29.30;90.70;;;;;;5092255;28;20234;-66
2023/07/08 11:15:04;;;;;;;;;;;29.30;91.00;;;;;;5083926;28;19991;-66
2023/07/08 11:17:33;;;;;;;;;;;29.40;91.70;;;;;;5084880;28;20874;-66
2023/07/08 11:20:02;;;;;;;;;;;29.50;91.00;;;;;;5083819;28;20026;-67
2023/07/08 11:25:19;;;;;;;;;;;29.60;90.90;;;;;;5082093;28;19979;-67
2023/07/08 11:27:47;;;;;;;;;;;29.60;90.20;;;;;;5083791;28;19920;-68
2023/07/08 11:30:17;;;;;;;;;;;29.70;90.50;;;;;;5083504;28;20417;-69
2023/07/08 11:38:57;;;;;;;;;;;30.20;88.30;;;;;;5003961;28;19985;-67
2023/07/08 11:41:28;;;;;;;;;;;30.50;88.80;;;;;;5078000;28;19951;-68
2023/07/08 11:43:58;;;;;;;;;;;30.70;88.50;;;;;;5081848;28;20265;-67
2023/07/08 11:46:28;;;;;;;;;;;30.90;87.30;;;;;;5077800;28;19995;-67
2023/07/08 11:48:56;;;;;;;;;;;31.00;87.60;;;;;;5082277;28;20174;-67
2023/07/08 11:51:25;;;;;;;;;;;31.00;86.50;;;;;;5082170;28;19966;-68
2023/07/08 11:53:59;;;;;;;;;;;31.10;85.30;;;;;;5083190;28;20000;-68
2023/07/08 11:56:27;;;;;;;;;;;31.10;84.70;;;;;;5083169;28;19920;-67
2023/07/08 11:59:09;;;;;;;;;;;31.10;84.30;;;;;;5082562;28;19920;-67
2023/07/08 12:01:39;;;;;;;;;;;31.20;84.30;;;;;;5081542;28;19958;-68
2023/07/08 12:04:18;;;;;;;;;;;31.30;84.40;;;;;;5081955;28;19962;-67
2023/07/08 12:06:48;;;;;;;;;;;31.50;83.50;;;;;;5083117;28;20166;-67
2023/07/08 12:09:35;;;;;;;;;;;31.70;83.10;;;;;;5082895;28;19924;-67
2023/07/08 12:12:14;;;;;;;;;;;31.70;80.10;;;;;;5072702;28;19920;-66
2023/07/08 12:14:41;;;;;;;;;;;31.50;80.50;;;;;;5063015;28;19924;-66
2023/07/08 12:36:14;;;;;;;;;;;31.10;79.60;;;;;;4797889;30;20038;-68
2023/07/08 12:38:44;;;;;;;;;;;31.30;78.10;;;;;;4876563;29;19931;-68
2023/07/08 12:47:25;;;;;;;;;;;31.50;76.80;;;;;;4945125;28;20260;-67
2023/07/08 12:49:53;;;;;;;;;;;31.40;77.30;;;;;;4985895;28;19922;-68
2023/07/08 12:55:42;;;;;;;;;;;31.40;76.90;;;;;;5024665;28;19918;-68
2023/07/08 12:58:10;;;;;;;;;;;31.50;76.60;;;;;;5043198;28;19985;-68
2023/07/08 13:06:32;;;;;;;;;;;31.30;75.50;;;;;;4936257;28;19968;-68
2023/07/08 13:09:03;;;;;;;;;;;31.10;76.00;;;;;;5051254;28;19921;-68
2023/07/08 13:18:00;;;;;;;;;;;31.60;78.80;;;;;;4996115;28;19926;-68
2023/07/08 13:20:27;;;;;;;;;;;32.20;76.70;;;;;;5004676;28;19928;-68
2023/07/08 13:29:06;;;;;;;;;;;33.10;73.30;;;;;;4988246;28;19983;-68
2023/07/08 13:31:33;;;;;;;;;;;32.90;72.70;;;;;;5065920;28;19925;-69
